Aviation Digital Data Service (ADDS)

Output produced by METARs form (0745 UTC 20 January 2017)
found at http://aviationweather.gov/adds/metars/
 
KPHL 200559Z 2006/2112 VRB03KT P6SM BKN250 
     FM201630 16005KT 6SM -RA SCT030 OVC070 
     FM201930 14006KT 2SM -RA BR BKN018 OVC035 
     FM202200 15004KT 3SM BR BKN008 OVC015 
     FM210200 18003KT 5SM BR OVC005